sensor_id;sensor_type;location;lat;lon;timestamp;P1;durP1;ratioP1;P2;durP2;ratioP2
5010;SDS011;2524;54.364;10.072;2022-08-04T00:02:23;2.70;;;2.50;;
5010;SDS011;2524;54.364;10.072;2022-08-04T00:05:05;3.83;;;3.20;;
5010;SDS011;2524;54.364;10.072;2022-08-04T00:07:47;2.90;;;2.80;;
5010;SDS011;2524;54.364;10.072;2022-08-04T00:10:35;6.07;;;3.67;;
5010;SDS011;2524;54.364;10.072;2022-08-04T00:13:04;3.63;;;3.20;;
5010;SDS011;2524;54.364;10.072;2022-08-04T00:15:32;7.73;;;3.60;;
5010;SDS011;2524;54.364;10.072;2022-08-04T00:18:00;4.07;;;3.63;;
5010;SDS011;2524;54.364;10.072;2022-08-04T00:20:32;3.77;;;3.47;;
5010;SDS011;2524;54.364;10.072;2022-08-04T00:22:59;5.70;;;3.97;;
5010;SDS011;2524;54.364;10.072;2022-08-04T00:25:26;4.37;;;3.50;;
5010;SDS011;2524;54.364;10.072;2022-08-04T00:27:52;4.00;;;3.60;;
5010;SDS011;2524;54.364;10.072;2022-08-04T00:30:18;9.07;;;4.97;;
5010;SDS011;2524;54.364;10.072;2022-08-04T00:32:44;4.50;;;4.00;;
5010;SDS011;2524;54.364;10.072;2022-08-04T00:35:14;6.77;;;4.83;;
5010;SDS011;2524;54.364;10.072;2022-08-04T00:37:43;3.60;;;3.10;;
5010;SDS011;2524;54.364;10.072;2022-08-04T00:40:21;6.33;;;3.90;;
5010;SDS011;2524;54.364;10.072;2022-08-04T00:42:48;2.67;;;2.57;;
5010;SDS011;2524;54.364;10.072;2022-08-04T00:51:09;3.17;;;2.93;;
5010;SDS011;2524;54.364;10.072;2022-08-04T00:53:39;3.93;;;3.53;;
5010;SDS011;2524;54.364;10.072;2022-08-04T00:56:28;4.57;;;3.27;;
5010;SDS011;2524;54.364;10.072;2022-08-04T01:01:59;3.80;;;3.50;;
5010;SDS011;2524;54.364;10.072;2022-08-04T01:04:53;3.47;;;3.13;;
5010;SDS011;2524;54.364;10.072;2022-08-04T01:10:03;2.93;;;2.73;;
5010;SDS011;2524;54.364;10.072;2022-08-04T01:15:17;3.43;;;2.90;;
5010;SDS011;2524;54.364;10.072;2022-08-04T01:18:03;3.30;;;3.10;;
5010;SDS011;2524;54.364;10.072;2022-08-04T01:20:34;3.47;;;3.00;;
5010;SDS011;2524;54.364;10.072;2022-08-04T01:34:20;3.53;;;3.33;;
5010;SDS011;2524;54.364;10.072;2022-08-04T01:36:51;6.17;;;4.60;;
5010;SDS011;2524;54.364;10.072;2022-08-04T01:39:25;4.47;;;4.07;;
5010;SDS011;2524;54.364;10.072;2022-08-04T01:42:04;4.67;;;3.50;;
5010;SDS011;2524;54.364;10.072;2022-08-04T01:44:30;4.73;;;3.50;;
5010;SDS011;2524;54.364;10.072;2022-08-04T01:47:00;3.60;;;3.30;;
5010;SDS011;2524;54.364;10.072;2022-08-04T01:49:30;4.30;;;3.33;;
5010;SDS011;2524;54.364;10.072;2022-08-04T01:51:57;3.27;;;2.97;;
5010;SDS011;2524;54.364;10.072;2022-08-04T01:54:23;3.00;;;2.80;;
5010;SDS011;2524;54.364;10.072;2022-08-04T01:56:50;2.97;;;2.73;;
5010;SDS011;2524;54.364;10.072;2022-08-04T01:59:18;3.27;;;3.07;;
5010;SDS011;2524;54.364;10.072;2022-08-04T02:01:44;2.80;;;2.60;;
5010;SDS011;2524;54.364;10.072;2022-08-04T02:04:18;3.17;;;2.97;;
5010;SDS011;2524;54.364;10.072;2022-08-04T02:06:48;3.13;;;2.90;;
5010;SDS011;2524;54.364;10.072;2022-08-04T02:12:24;2.77;;;2.67;;
5010;SDS011;2524;54.364;10.072;2022-08-04T02:17:30;3.07;;;2.73;;
5010;SDS011;2524;54.364;10.072;2022-08-04T02:20:08;2.90;;;2.80;;
5010;SDS011;2524;54.364;10.072;2022-08-04T02:25:23;3.10;;;2.80;;
5010;SDS011;2524;54.364;10.072;2022-08-04T02:30:20;2.40;;;2.30;;
5010;SDS011;2524;54.364;10.072;2022-08-04T02:32:50;2.50;;;2.40;;
5010;SDS011;2524;54.364;10.072;2022-08-04T02:35:23;2.70;;;2.50;;
5010;SDS011;2524;54.364;10.072;2022-08-04T02:37:57;3.00;;;2.80;;
5010;SDS011;2524;54.364;10.072;2022-08-04T02:40:51;2.80;;;2.60;;
5010;SDS011;2524;54.364;10.072;2022-08-04T02:43:20;3.33;;;2.43;;
5010;SDS011;2524;54.364;10.072;2022-08-04T02:45:49;2.90;;;2.70;;
5010;SDS011;2524;54.364;10.072;2022-08-04T02:48:19;3.07;;;2.60;;
5010;SDS011;2524;54.364;10.072;2022-08-04T02:50:48;3.20;;;3.00;;
5010;SDS011;2524;54.364;10.072;2022-08-04T02:53:17;4.00;;;2.77;;
5010;SDS011;2524;54.364;10.072;2022-08-04T02:55:45;2.80;;;2.60;;
5010;SDS011;2524;54.364;10.072;2022-08-04T02:58:12;2.93;;;2.20;;
5010;SDS011;2524;54.364;10.072;2022-08-04T03:00:40;2.83;;;2.63;;
5010;SDS011;2524;54.364;10.072;2022-08-04T03:09:04;3.63;;;2.87;;
5010;SDS011;2524;54.364;10.072;2022-08-04T03:40:45;2.30;;;2.20;;
5010;SDS011;2524;54.364;10.072;2022-08-04T03:43:23;2.50;;;2.30;;
5010;SDS011;2524;54.364;10.072;2022-08-04T03:55:36;2.43;;;2.33;;
5010;SDS011;2524;54.364;10.072;2022-08-04T04:06:30;2.60;;;2.33;;
5010;SDS011;2524;54.364;10.072;2022-08-04T04:09:26;2.00;;;2.00;;
5010;SDS011;2524;54.364;10.072;2022-08-04T04:15:19;2.50;;;2.40;;
5010;SDS011;2524;54.364;10.072;2022-08-04T04:20:46;2.20;;;2.10;;
5010;SDS011;2524;54.364;10.072;2022-08-04T04:23:56;2.47;;;2.27;;
5010;SDS011;2524;54.364;10.072;2022-08-04T04:27:00;2.50;;;2.30;;
5010;SDS011;2524;54.364;10.072;2022-08-04T04:30:29;2.23;;;2.10;;
5010;SDS011;2524;54.364;10.072;2022-08-04T04:32:34;2.20;;;2.00;;
5010;SDS011;2524;54.364;10.072;2022-08-04T04:51:43;2.70;;;2.50;;
5010;SDS011;2524;54.364;10.072;2022-08-04T04:54:36;6.20;;;2.30;;
5010;SDS011;2524;54.364;10.072;2022-08-04T04:57:17;2.33;;;2.20;;
5010;SDS011;2524;54.364;10.072;2022-08-04T04:59:51;4.50;;;2.63;;
5010;SDS011;2524;54.364;10.072;2022-08-04T05:16:15;4.03;;;2.40;;
5010;SDS011;2524;54.364;10.072;2022-08-04T05:19:18;1.93;;;1.80;;
5010;SDS011;2524;54.364;10.072;2022-08-04T05:21:47;2.10;;;2.00;;
5010;SDS011;2524;54.364;10.072;2022-08-04T05:24:17;6.90;;;2.40;;
5010;SDS011;2524;54.364;10.072;2022-08-04T05:26:47;4.00;;;2.67;;
5010;SDS011;2524;54.364;10.072;2022-08-04T05:29:40;7.43;;;3.07;;
5010;SDS011;2524;54.364;10.072;2022-08-04T05:32:09;8.53;;;3.40;;
5010;SDS011;2524;54.364;10.072;2022-08-04T05:34:40;7.13;;;3.03;;
5010;SDS011;2524;54.364;10.072;2022-08-04T05:37:10;3.40;;;2.30;;
5010;SDS011;2524;54.364;10.072;2022-08-04T05:39:41;4.63;;;2.07;;
5010;SDS011;2524;54.364;10.072;2022-08-04T05:42:10;3.60;;;2.33;;
5010;SDS011;2524;54.364;10.072;2022-08-04T05:44:37;2.63;;;2.10;;
5010;SDS011;2524;54.364;10.072;2022-08-04T05:47:04;5.80;;;2.67;;
5010;SDS011;2524;54.364;10.072;2022-08-04T05:49:31;3.87;;;2.60;;
5010;SDS011;2524;54.364;10.072;2022-08-04T05:51:59;5.50;;;2.50;;
5010;SDS011;2524;54.364;10.072;2022-08-04T05:54:27;2.07;;;1.83;;
5010;SDS011;2524;54.364;10.072;2022-08-04T05:56:54;2.93;;;2.03;;
5010;SDS011;2524;54.364;10.072;2022-08-04T05:59:22;6.50;;;2.67;;
5010;SDS011;2524;54.364;10.072;2022-08-04T06:01:52;2.27;;;2.17;;
5010;SDS011;2524;54.364;10.072;2022-08-04T06:04:21;3.00;;;2.67;;
5010;SDS011;2524;54.364;10.072;2022-08-04T06:07:03;3.80;;;2.40;;
5010;SDS011;2524;54.364;10.072;2022-08-04T06:09:30;5.40;;;2.37;;
5010;SDS011;2524;54.364;10.072;2022-08-04T06:11:58;2.57;;;2.37;;
5010;SDS011;2524;54.364;10.072;2022-08-04T06:14:26;9.70;;;3.20;;
5010;SDS011;2524;54.364;10.072;2022-08-04T06:16:57;5.40;;;2.80;;
5010;SDS011;2524;54.364;10.072;2022-08-04T06:19:25;4.93;;;2.93;;
5010;SDS011;2524;54.364;10.072;2022-08-04T06:21:53;6.50;;;2.83;;
5010;SDS011;2524;54.364;10.072;2022-08-04T06:24:23;4.50;;;2.60;;
5010;SDS011;2524;54.364;10.072;2022-08-04T06:26:52;4.27;;;2.70;;
5010;SDS011;2524;54.364;10.072;2022-08-04T06:29:19;4.20;;;2.80;;
5010;SDS011;2524;54.364;10.072;2022-08-04T06:31:54;4.00;;;2.87;;
5010;SDS011;2524;54.364;10.072;2022-08-04T06:34:23;6.80;;;2.97;;
5010;SDS011;2524;54.364;10.072;2022-08-04T06:36:50;5.63;;;2.90;;
5010;SDS011;2524;54.364;10.072;2022-08-04T06:39:16;12.97;;;2.93;;
5010;SDS011;2524;54.364;10.072;2022-08-04T06:41:43;7.03;;;2.67;;
5010;SDS011;2524;54.364;10.072;2022-08-04T06:44:09;2.70;;;2.07;;
5010;SDS011;2524;54.364;10.072;2022-08-04T06:46:37;2.60;;;2.40;;
5010;SDS011;2524;54.364;10.072;2022-08-04T06:49:05;4.97;;;2.13;;
5010;SDS011;2524;54.364;10.072;2022-08-04T06:51:32;5.10;;;2.90;;
5010;SDS011;2524;54.364;10.072;2022-08-04T06:54:00;5.53;;;2.50;;
5010;SDS011;2524;54.364;10.072;2022-08-04T06:56:26;5.90;;;2.30;;
5010;SDS011;2524;54.364;10.072;2022-08-04T06:58:54;9.97;;;2.90;;
5010;SDS011;2524;54.364;10.072;2022-08-04T07:01:21;4.27;;;2.47;;
5010;SDS011;2524;54.364;10.072;2022-08-04T07:03:50;3.70;;;1.97;;
5010;SDS011;2524;54.364;10.072;2022-08-04T07:06:16;8.43;;;2.83;;
5010;SDS011;2524;54.364;10.072;2022-08-04T07:08:43;3.90;;;2.20;;
5010;SDS011;2524;54.364;10.072;2022-08-04T07:11:09;8.13;;;2.70;;
5010;SDS011;2524;54.364;10.072;2022-08-04T07:13:35;3.00;;;2.30;;
5010;SDS011;2524;54.364;10.072;2022-08-04T07:16:01;2.10;;;1.90;;
5010;SDS011;2524;54.364;10.072;2022-08-04T07:18:29;2.40;;;2.17;;
5010;SDS011;2524;54.364;10.072;2022-08-04T07:20:55;5.50;;;2.50;;
5010;SDS011;2524;54.364;10.072;2022-08-04T07:23:22;3.50;;;2.83;;
5010;SDS011;2524;54.364;10.072;2022-08-04T07:25:53;5.87;;;2.87;;
5010;SDS011;2524;54.364;10.072;2022-08-04T07:28:22;8.03;;;2.27;;
5010;SDS011;2524;54.364;10.072;2022-08-04T07:30:49;4.77;;;2.23;;
5010;SDS011;2524;54.364;10.072;2022-08-04T07:33:15;2.93;;;2.00;;
5010;SDS011;2524;54.364;10.072;2022-08-04T07:35:41;4.37;;;2.37;;
5010;SDS011;2524;54.364;10.072;2022-08-04T07:38:08;4.83;;;2.40;;
5010;SDS011;2524;54.364;10.072;2022-08-04T07:40:36;10.67;;;2.80;;
5010;SDS011;2524;54.364;10.072;2022-08-04T07:43:02;9.63;;;2.73;;
5010;SDS011;2524;54.364;10.072;2022-08-04T07:45:28;4.27;;;2.77;;
5010;SDS011;2524;54.364;10.072;2022-08-04T07:47:54;3.77;;;2.10;;
5010;SDS011;2524;54.364;10.072;2022-08-04T07:50:20;9.43;;;2.87;;
5010;SDS011;2524;54.364;10.072;2022-08-04T07:52:46;7.43;;;2.60;;
5010;SDS011;2524;54.364;10.072;2022-08-04T07:55:13;5.67;;;2.57;;
5010;SDS011;2524;54.364;10.072;2022-08-04T07:57:39;2.37;;;1.80;;
5010;SDS011;2524;54.364;10.072;2022-08-04T08:00:05;6.87;;;2.90;;
5010;SDS011;2524;54.364;10.072;2022-08-04T08:02:32;8.93;;;2.17;;
5010;SDS011;2524;54.364;10.072;2022-08-04T08:05:00;12.43;;;2.70;;
5010;SDS011;2524;54.364;10.072;2022-08-04T08:07:26;5.33;;;2.20;;
5010;SDS011;2524;54.364;10.072;2022-08-04T08:09:52;3.23;;;2.07;;
5010;SDS011;2524;54.364;10.072;2022-08-04T08:12:17;1.93;;;1.73;;
5010;SDS011;2524;54.364;10.072;2022-08-04T08:14:44;11.20;;;2.60;;
5010;SDS011;2524;54.364;10.072;2022-08-04T08:17:10;7.20;;;2.40;;
5010;SDS011;2524;54.364;10.072;2022-08-04T08:19:36;8.10;;;2.60;;
5010;SDS011;2524;54.364;10.072;2022-08-04T08:22:02;4.17;;;1.97;;
5010;SDS011;2524;54.364;10.072;2022-08-04T08:24:28;6.00;;;2.17;;
5010;SDS011;2524;54.364;10.072;2022-08-04T08:26:55;5.27;;;2.33;;
5010;SDS011;2524;54.364;10.072;2022-08-04T08:29:22;4.70;;;1.90;;
5010;SDS011;2524;54.364;10.072;2022-08-04T08:31:50;9.20;;;2.40;;
5010;SDS011;2524;54.364;10.072;2022-08-04T08:34:15;5.80;;;2.40;;
5010;SDS011;2524;54.364;10.072;2022-08-04T08:36:45;10.43;;;3.03;;
5010;SDS011;2524;54.364;10.072;2022-08-04T08:50:20;8.97;;;1.60;;
5010;SDS011;2524;54.364;10.072;2022-08-04T08:58:46;4.00;;;2.10;;
5010;SDS011;2524;54.364;10.072;2022-08-04T09:13:01;3.03;;;1.97;;
5010;SDS011;2524;54.364;10.072;2022-08-04T09:18:58;2.50;;;1.20;;
5010;SDS011;2524;54.364;10.072;2022-08-04T09:24:21;5.83;;;1.43;;
5010;SDS011;2524;54.364;10.072;2022-08-04T09:26:59;1.73;;;1.20;;
5010;SDS011;2524;54.364;10.072;2022-08-04T09:32:45;2.33;;;1.60;;
5010;SDS011;2524;54.364;10.072;2022-08-04T09:35:33;3.90;;;1.70;;
5010;SDS011;2524;54.364;10.072;2022-08-04T09:49:02;5.17;;;1.50;;
5010;SDS011;2524;54.364;10.072;2022-08-04T10:02:26;2.50;;;1.30;;
5010;SDS011;2524;54.364;10.072;2022-08-04T10:05:04;2.30;;;1.10;;
5010;SDS011;2524;54.364;10.072;2022-08-04T10:07:44;1.00;;;0.90;;
5010;SDS011;2524;54.364;10.072;2022-08-04T10:18:44;2.43;;;1.10;;
5010;SDS011;2524;54.364;10.072;2022-08-04T10:27:24;2.53;;;1.30;;
5010;SDS011;2524;54.364;10.072;2022-08-04T10:30:05;1.67;;;1.30;;
5010;SDS011;2524;54.364;10.072;2022-08-04T10:35:17;1.63;;;0.97;;
5010;SDS011;2524;54.364;10.072;2022-08-04T10:43:47;2.30;;;1.07;;
5010;SDS011;2524;54.364;10.072;2022-08-04T10:47:03;1.33;;;1.10;;
5010;SDS011;2524;54.364;10.072;2022-08-04T10:49:15;3.47;;;1.30;;
5010;SDS011;2524;54.364;10.072;2022-08-04T10:52:43;1.10;;;1.00;;
5010;SDS011;2524;54.364;10.072;2022-08-04T10:55:10;1.63;;;1.53;;
5010;SDS011;2524;54.364;10.072;2022-08-04T10:57:43;1.80;;;1.10;;
5010;SDS011;2524;54.364;10.072;2022-08-04T11:00:17;3.77;;;1.13;;
5010;SDS011;2524;54.364;10.072;2022-08-04T11:05:29;1.17;;;0.97;;
5010;SDS011;2524;54.364;10.072;2022-08-04T11:08:02;0.80;;;0.80;;
5010;SDS011;2524;54.364;10.072;2022-08-04T11:10:36;2.30;;;1.10;;
5010;SDS011;2524;54.364;10.072;2022-08-04T11:13:10;2.83;;;1.10;;
5010;SDS011;2524;54.364;10.072;2022-08-04T11:15:40;1.17;;;1.07;;
5010;SDS011;2524;54.364;10.072;2022-08-04T11:18:22;1.97;;;1.17;;
5010;SDS011;2524;54.364;10.072;2022-08-04T11:21:00;2.70;;;1.20;;
5010;SDS011;2524;54.364;10.072;2022-08-04T11:23:33;5.93;;;1.20;;
5010;SDS011;2524;54.364;10.072;2022-08-04T11:26:04;1.27;;;1.00;;
5010;SDS011;2524;54.364;10.072;2022-08-04T11:28:41;1.10;;;0.93;;
5010;SDS011;2524;54.364;10.072;2022-08-04T11:31:40;1.33;;;0.90;;
5010;SDS011;2524;54.364;10.072;2022-08-04T11:37:45;1.20;;;1.10;;
5010;SDS011;2524;54.364;10.072;2022-08-04T11:42:37;0.90;;;0.90;;
5010;SDS011;2524;54.364;10.072;2022-08-04T11:45:15;1.73;;;0.90;;
5010;SDS011;2524;54.364;10.072;2022-08-04T11:47:48;0.80;;;0.80;;
5010;SDS011;2524;54.364;10.072;2022-08-04T11:50:24;0.80;;;0.80;;
5010;SDS011;2524;54.364;10.072;2022-08-04T11:52:58;0.90;;;0.90;;
5010;SDS011;2524;54.364;10.072;2022-08-04T11:55:26;1.67;;;0.70;;
5010;SDS011;2524;54.364;10.072;2022-08-04T11:57:53;1.00;;;1.00;;
5010;SDS011;2524;54.364;10.072;2022-08-04T12:00:19;1.47;;;0.80;;
5010;SDS011;2524;54.364;10.072;2022-08-04T12:08:46;0.93;;;0.70;;
5010;SDS011;2524;54.364;10.072;2022-08-04T12:13:58;1.70;;;0.77;;
5010;SDS011;2524;54.364;10.072;2022-08-04T12:19:08;0.60;;;0.60;;
5010;SDS011;2524;54.364;10.072;2022-08-04T12:21:43;1.50;;;1.10;;
5010;SDS011;2524;54.364;10.072;2022-08-04T12:24:17;0.80;;;0.80;;
5010;SDS011;2524;54.364;10.072;2022-08-04T12:26:52;0.90;;;0.90;;
5010;SDS011;2524;54.364;10.072;2022-08-04T12:29:22;2.00;;;1.70;;
5010;SDS011;2524;54.364;10.072;2022-08-04T12:31:56;1.30;;;1.20;;
5010;SDS011;2524;54.364;10.072;2022-08-04T12:34:32;6.80;;;1.47;;
5010;SDS011;2524;54.364;10.072;2022-08-04T12:37:22;1.30;;;1.20;;
5010;SDS011;2524;54.364;10.072;2022-08-04T12:39:57;2.60;;;1.63;;
5010;SDS011;2524;54.364;10.072;2022-08-04T12:42:28;1.07;;;1.07;;
5010;SDS011;2524;54.364;10.072;2022-08-04T12:45:06;1.60;;;1.50;;
5010;SDS011;2524;54.364;10.072;2022-08-04T12:47:33;2.27;;;1.50;;
5010;SDS011;2524;54.364;10.072;2022-08-04T12:50:01;1.53;;;1.43;;
5010;SDS011;2524;54.364;10.072;2022-08-04T12:52:47;1.30;;;1.30;;
5010;SDS011;2524;54.364;10.072;2022-08-04T12:55:17;2.10;;;1.90;;
5010;SDS011;2524;54.364;10.072;2022-08-04T12:57:46;1.30;;;1.30;;
5010;SDS011;2524;54.364;10.072;2022-08-04T13:00:27;2.30;;;1.30;;
5010;SDS011;2524;54.364;10.072;2022-08-04T13:02:57;1.40;;;1.30;;
5010;SDS011;2524;54.364;10.072;2022-08-04T13:05:29;1.17;;;1.17;;
5010;SDS011;2524;54.364;10.072;2022-08-04T13:07:55;0.90;;;0.90;;
5010;SDS011;2524;54.364;10.072;2022-08-04T13:10:23;1.27;;;1.00;;
5010;SDS011;2524;54.364;10.072;2022-08-04T13:12:56;2.05;;;1.67;;
5010;SDS011;2524;54.364;10.072;2022-08-04T13:15:24;2.15;;;1.60;;
5010;SDS011;2524;54.364;10.072;2022-08-04T13:17:54;1.58;;;1.55;;
5010;SDS011;2524;54.364;10.072;2022-08-04T13:20:33;1.50;;;1.40;;
5010;SDS011;2524;54.364;10.072;2022-08-04T13:23:03;1.30;;;1.20;;
5010;SDS011;2524;54.364;10.072;2022-08-04T13:25:35;1.20;;;1.20;;
5010;SDS011;2524;54.364;10.072;2022-08-04T13:28:07;1.73;;;1.30;;
5010;SDS011;2524;54.364;10.072;2022-08-04T13:30:38;3.33;;;1.93;;
5010;SDS011;2524;54.364;10.072;2022-08-04T13:33:05;1.50;;;1.50;;
5010;SDS011;2524;54.364;10.072;2022-08-04T13:35:31;1.75;;;1.65;;
5010;SDS011;2524;54.364;10.072;2022-08-04T13:37:58;1.15;;;1.15;;
5010;SDS011;2524;54.364;10.072;2022-08-04T13:40:25;1.10;;;1.10;;
5010;SDS011;2524;54.364;10.072;2022-08-04T13:42:52;1.02;;;1.02;;
5010;SDS011;2524;54.364;10.072;2022-08-04T13:45:21;1.50;;;1.50;;
5010;SDS011;2524;54.364;10.072;2022-08-04T13:47:48;1.20;;;1.20;;
5010;SDS011;2524;54.364;10.072;2022-08-04T13:50:28;4.22;;;1.42;;
5010;SDS011;2524;54.364;10.072;2022-08-04T13:52:57;2.08;;;1.25;;
5010;SDS011;2524;54.364;10.072;2022-08-04T13:58:09;3.35;;;1.70;;
5010;SDS011;2524;54.364;10.072;2022-08-04T14:00:42;1.92;;;1.75;;
5010;SDS011;2524;54.364;10.072;2022-08-04T14:03:19;1.60;;;1.50;;
5010;SDS011;2524;54.364;10.072;2022-08-04T14:11:42;1.45;;;1.35;;
5010;SDS011;2524;54.364;10.072;2022-08-04T14:14:13;1.63;;;1.63;;
5010;SDS011;2524;54.364;10.072;2022-08-04T14:17:24;1.10;;;1.10;;
5010;SDS011;2524;54.364;10.072;2022-08-04T14:19:59;2.45;;;1.90;;
5010;SDS011;2524;54.364;10.072;2022-08-04T14:24:55;1.15;;;1.15;;
5010;SDS011;2524;54.364;10.072;2022-08-04T14:27:21;2.75;;;2.35;;
5010;SDS011;2524;54.364;10.072;2022-08-04T14:29:47;3.40;;;2.10;;
5010;SDS011;2524;54.364;10.072;2022-08-04T14:32:13;10.00;;;2.70;;
5010;SDS011;2524;54.364;10.072;2022-08-04T14:34:40;5.45;;;2.13;;
5010;SDS011;2524;54.364;10.072;2022-08-04T14:37:08;6.78;;;2.70;;
5010;SDS011;2524;54.364;10.072;2022-08-04T14:39:41;6.40;;;2.50;;
5010;SDS011;2524;54.364;10.072;2022-08-04T14:42:08;4.20;;;2.07;;
5010;SDS011;2524;54.364;10.072;2022-08-04T14:44:51;4.83;;;2.50;;
5010;SDS011;2524;54.364;10.072;2022-08-04T14:47:37;4.80;;;2.60;;
5010;SDS011;2524;54.364;10.072;2022-08-04T14:50:10;7.70;;;2.40;;
5010;SDS011;2524;54.364;10.072;2022-08-04T14:52:37;8.43;;;2.30;;
5010;SDS011;2524;54.364;10.072;2022-08-04T14:55:20;7.47;;;2.67;;
5010;SDS011;2524;54.364;10.072;2022-08-04T14:57:50;2.30;;;1.83;;
5010;SDS011;2524;54.364;10.072;2022-08-04T15:00:26;6.23;;;2.53;;
5010;SDS011;2524;54.364;10.072;2022-08-04T15:02:56;8.07;;;2.60;;
5010;SDS011;2524;54.364;10.072;2022-08-04T15:05:35;6.10;;;2.00;;
5010;SDS011;2524;54.364;10.072;2022-08-04T15:08:02;4.83;;;2.80;;
5010;SDS011;2524;54.364;10.072;2022-08-04T15:10:29;4.90;;;2.63;;
5010;SDS011;2524;54.364;10.072;2022-08-04T15:12:54;6.00;;;2.77;;
5010;SDS011;2524;54.364;10.072;2022-08-04T15:15:21;3.83;;;2.30;;
5010;SDS011;2524;54.364;10.072;2022-08-04T15:17:47;13.90;;;2.67;;
5010;SDS011;2524;54.364;10.072;2022-08-04T15:20:13;6.43;;;2.67;;
5010;SDS011;2524;54.364;10.072;2022-08-04T15:22:41;3.43;;;1.97;;
5010;SDS011;2524;54.364;10.072;2022-08-04T15:25:07;7.47;;;2.83;;
5010;SDS011;2524;54.364;10.072;2022-08-04T15:27:33;4.70;;;2.87;;
5010;SDS011;2524;54.364;10.072;2022-08-04T15:30:03;2.80;;;2.30;;
5010;SDS011;2524;54.364;10.072;2022-08-04T15:32:31;6.13;;;2.57;;
5010;SDS011;2524;54.364;10.072;2022-08-04T15:35:11;11.93;;;3.03;;
5010;SDS011;2524;54.364;10.072;2022-08-04T15:37:44;4.10;;;2.40;;
5010;SDS011;2524;54.364;10.072;2022-08-04T15:40:29;6.20;;;2.10;;
5010;SDS011;2524;54.364;10.072;2022-08-04T15:43:19;4.10;;;2.17;;
5010;SDS011;2524;54.364;10.072;2022-08-04T15:45:52;6.03;;;2.63;;
5010;SDS011;2524;54.364;10.072;2022-08-04T15:53:20;4.20;;;1.80;;
5010;SDS011;2524;54.364;10.072;2022-08-04T15:55:46;4.70;;;2.57;;
5010;SDS011;2524;54.364;10.072;2022-08-04T15:58:12;11.03;;;2.90;;
5010;SDS011;2524;54.364;10.072;2022-08-04T16:05:58;6.33;;;2.43;;
5010;SDS011;2524;54.364;10.072;2022-08-04T16:08:24;6.73;;;2.60;;
5010;SDS011;2524;54.364;10.072;2022-08-04T16:10:50;5.37;;;2.20;;
5010;SDS011;2524;54.364;10.072;2022-08-04T16:13:17;10.13;;;3.47;;
5010;SDS011;2524;54.364;10.072;2022-08-04T16:15:46;4.93;;;2.83;;
5010;SDS011;2524;54.364;10.072;2022-08-04T16:18:18;5.73;;;3.00;;
5010;SDS011;2524;54.364;10.072;2022-08-04T16:20:45;7.50;;;3.03;;
5010;SDS011;2524;54.364;10.072;2022-08-04T16:23:18;4.27;;;2.33;;
5010;SDS011;2524;54.364;10.072;2022-08-04T16:25:46;5.57;;;2.50;;
5010;SDS011;2524;54.364;10.072;2022-08-04T16:31:00;5.33;;;2.50;;
5010;SDS011;2524;54.364;10.072;2022-08-04T16:33:27;4.00;;;2.90;;
5010;SDS011;2524;54.364;10.072;2022-08-04T16:35:57;5.40;;;2.80;;
5010;SDS011;2524;54.364;10.072;2022-08-04T16:38:24;7.33;;;2.40;;
5010;SDS011;2524;54.364;10.072;2022-08-04T16:40:57;6.10;;;2.80;;
5010;SDS011;2524;54.364;10.072;2022-08-04T16:43:27;4.43;;;2.20;;
5010;SDS011;2524;54.364;10.072;2022-08-04T16:48:24;5.33;;;2.60;;
5010;SDS011;2524;54.364;10.072;2022-08-04T16:50:55;7.93;;;3.00;;
5010;SDS011;2524;54.364;10.072;2022-08-04T16:53:25;10.10;;;2.67;;
5010;SDS011;2524;54.364;10.072;2022-08-04T16:56:01;4.00;;;2.27;;
5010;SDS011;2524;54.364;10.072;2022-08-04T16:58:32;3.23;;;1.90;;
5010;SDS011;2524;54.364;10.072;2022-08-04T17:01:05;4.23;;;2.20;;
5010;SDS011;2524;54.364;10.072;2022-08-04T17:03:40;5.70;;;2.40;;
5010;SDS011;2524;54.364;10.072;2022-08-04T17:06:14;4.07;;;2.30;;
5010;SDS011;2524;54.364;10.072;2022-08-04T17:08:40;4.50;;;2.50;;
5010;SDS011;2524;54.364;10.072;2022-08-04T17:11:07;4.70;;;2.40;;
5010;SDS011;2524;54.364;10.072;2022-08-04T17:13:40;8.23;;;2.30;;
5010;SDS011;2524;54.364;10.072;2022-08-04T17:16:09;6.03;;;2.73;;
5010;SDS011;2524;54.364;10.072;2022-08-04T17:18:39;7.30;;;2.57;;
5010;SDS011;2524;54.364;10.072;2022-08-04T17:21:09;6.30;;;2.43;;
5010;SDS011;2524;54.364;10.072;2022-08-04T17:23:42;10.70;;;2.50;;
5010;SDS011;2524;54.364;10.072;2022-08-04T17:26:11;6.30;;;2.63;;
5010;SDS011;2524;54.364;10.072;2022-08-04T17:28:39;9.20;;;2.23;;
5010;SDS011;2524;54.364;10.072;2022-08-04T17:31:06;7.00;;;2.37;;
5010;SDS011;2524;54.364;10.072;2022-08-04T17:33:39;7.10;;;2.47;;
5010;SDS011;2524;54.364;10.072;2022-08-04T17:36:09;3.80;;;1.93;;
5010;SDS011;2524;54.364;10.072;2022-08-04T17:38:39;4.30;;;2.40;;
5010;SDS011;2524;54.364;10.072;2022-08-04T17:41:07;2.93;;;1.90;;
5010;SDS011;2524;54.364;10.072;2022-08-04T17:43:45;3.10;;;1.80;;
5010;SDS011;2524;54.364;10.072;2022-08-04T17:46:16;3.63;;;2.10;;
5010;SDS011;2524;54.364;10.072;2022-08-04T17:48:42;7.40;;;2.00;;
5010;SDS011;2524;54.364;10.072;2022-08-04T17:51:14;3.57;;;1.90;;
5010;SDS011;2524;54.364;10.072;2022-08-04T17:53:41;4.17;;;2.10;;
5010;SDS011;2524;54.364;10.072;2022-08-04T18:07:12;9.70;;;1.97;;
5010;SDS011;2524;54.364;10.072;2022-08-04T18:09:50;5.03;;;1.80;;
5010;SDS011;2524;54.364;10.072;2022-08-04T18:12:23;1.80;;;1.70;;
5010;SDS011;2524;54.364;10.072;2022-08-04T18:14:57;2.47;;;2.27;;
5010;SDS011;2524;54.364;10.072;2022-08-04T18:20:05;4.47;;;2.07;;
5010;SDS011;2524;54.364;10.072;2022-08-04T18:22:33;2.07;;;1.77;;
5010;SDS011;2524;54.364;10.072;2022-08-04T18:24:59;3.30;;;1.40;;
5010;SDS011;2524;54.364;10.072;2022-08-04T18:27:26;3.80;;;1.70;;
5010;SDS011;2524;54.364;10.072;2022-08-04T18:29:54;3.07;;;1.80;;
5010;SDS011;2524;54.364;10.072;2022-08-04T18:32:20;1.90;;;1.63;;
5010;SDS011;2524;54.364;10.072;2022-08-04T18:34:48;1.83;;;1.67;;
5010;SDS011;2524;54.364;10.072;2022-08-04T18:37:14;2.00;;;1.40;;
5010;SDS011;2524;54.364;10.072;2022-08-04T18:39:40;2.37;;;1.90;;
5010;SDS011;2524;54.364;10.072;2022-08-04T18:42:06;2.50;;;1.40;;
5010;SDS011;2524;54.364;10.072;2022-08-04T18:44:32;2.20;;;1.63;;
5010;SDS011;2524;54.364;10.072;2022-08-04T18:46:58;1.73;;;1.30;;
5010;SDS011;2524;54.364;10.072;2022-08-04T18:49:25;1.70;;;1.60;;
5010;SDS011;2524;54.364;10.072;2022-08-04T18:51:51;1.40;;;1.30;;
5010;SDS011;2524;54.364;10.072;2022-08-04T18:54:18;1.70;;;1.23;;
5010;SDS011;2524;54.364;10.072;2022-08-04T18:56:44;1.40;;;1.30;;
5010;SDS011;2524;54.364;10.072;2022-08-04T18:59:09;1.60;;;1.50;;
5010;SDS011;2524;54.364;10.072;2022-08-04T19:01:35;2.30;;;1.63;;
5010;SDS011;2524;54.364;10.072;2022-08-04T19:04:01;1.37;;;1.27;;
5010;SDS011;2524;54.364;10.072;2022-08-04T19:06:27;1.37;;;1.37;;
5010;SDS011;2524;54.364;10.072;2022-08-04T19:08:54;1.30;;;1.27;;
5010;SDS011;2524;54.364;10.072;2022-08-04T19:11:19;1.40;;;1.40;;
5010;SDS011;2524;54.364;10.072;2022-08-04T19:13:45;3.87;;;1.73;;
5010;SDS011;2524;54.364;10.072;2022-08-04T19:16:11;2.17;;;1.57;;
5010;SDS011;2524;54.364;10.072;2022-08-04T19:18:36;1.30;;;1.20;;
5010;SDS011;2524;54.364;10.072;2022-08-04T19:21:02;1.50;;;1.40;;
5010;SDS011;2524;54.364;10.072;2022-08-04T19:23:28;1.47;;;1.37;;
5010;SDS011;2524;54.364;10.072;2022-08-04T19:25:55;1.40;;;1.30;;
5010;SDS011;2524;54.364;10.072;2022-08-04T19:28:22;1.57;;;1.53;;
5010;SDS011;2524;54.364;10.072;2022-08-04T19:30:48;3.27;;;1.40;;
5010;SDS011;2524;54.364;10.072;2022-08-04T19:33:14;2.97;;;1.50;;
5010;SDS011;2524;54.364;10.072;2022-08-04T19:35:40;1.20;;;1.20;;
5010;SDS011;2524;54.364;10.072;2022-08-04T19:38:08;1.60;;;1.50;;
5010;SDS011;2524;54.364;10.072;2022-08-04T19:40:50;1.50;;;1.43;;
5010;SDS011;2524;54.364;10.072;2022-08-04T19:44:19;1.50;;;1.40;;
5010;SDS011;2524;54.364;10.072;2022-08-04T19:46:44;1.67;;;1.43;;
5010;SDS011;2524;54.364;10.072;2022-08-04T19:49:10;4.20;;;1.30;;
5010;SDS011;2524;54.364;10.072;2022-08-04T19:51:36;1.60;;;1.50;;
5010;SDS011;2524;54.364;10.072;2022-08-04T19:54:03;1.70;;;1.60;;
5010;SDS011;2524;54.364;10.072;2022-08-04T19:56:29;2.20;;;1.80;;